Airfield :







YOU CAN JOIN US ON...

 
LOGIN :

Register | Disclaimer

   EN    FR    IT 

 









Legend :    VFR   Marginal VFR   IFR   Intensive IFR   Very Intensive IFR
Visi :
Ceiling :
>= 8 km
>= 3000ft
5 to 8 km
1000 to 3000 ft
1500m to 5 km
500 to 1000 ft
800 to 1500m
200 to 500 ft
< 800m
< 200 ft
Symbols :   Thunderstorms  Fog  Heavy snow  Heavy precipitations  Wind > 20 kt






- Airport Elevation : 54 ft
- IATA code : BEL


SBBE - Val de Cans Int.

CURRENT METAR :
  • 260100Z 10004KT 9999 FEW020 26/25 Q1011

EXPIRED METARs :
  • 260000Z 06003KT 9999 FEW023 SCT100 26/25 Q1010
  • 252300Z 07003KT 9999 FEW023 SCT100 26/25 Q1010

TAF TAF SBBE
Valid from the 26 at 00:00 until the 27 at 00:00 UTC


252100Z 2600/2624 09005KT 9999 SCT020 TN25/2609Z TX32/2616Z
BECMG 2607/2609 13005KT SCT015
PROB30 2614/2616 06005KT SHRA SCT030 FEW035TCU
BECMG 2521/2523 12005KT SCT025 RMK PGY



MET'MAP, your aeronautical weather chart ! - Copyright ORBIFLY December 2007 - Disclaimer

ORBIFLY MET'MAP TEAM :

Programming & Development : Alexandra Zaïnal
Concept & original design : Baudouin d'Aumeries
Assistance for programming : Marc-Olivier Méhu
Technical & hardware support : Manuel Goepfert

Contact : metmap@orbifly.com




SOURCES & CREDITS :

   NOAA